Time;durP1;ratioP1;P1;durP2;ratioP2;P2;SDS_P1;SDS_P2;PMS_P1;PMS_P2;Temp;Humidity;BMP_temperature;BMP_pressure;BME280_temperature;BME280_humidity;BME280_pressure;Samples;Min_cycle;Max_cycle;Signal;HPM_P1;HPM_P2
2022/05/14 00:01:23;;;;;;;9.88;2.80;;;10.90;74.10;;;;;;4995319;28;20049;-80
2022/05/14 00:03:48;;;;;;;4.13;2.22;;;11.00;74.40;;;;;;4995677;28;20486;-81
2022/05/14 00:06:23;;;;;;;3.30;1.73;;;10.90;74.40;;;;;;4997894;28;20100;-79
2022/05/14 00:08:49;;;;;;;3.55;1.90;;;10.90;74.50;;;;;;5006689;28;20041;-79
2022/05/14 00:14:03;;;;;;;5.47;2.33;;;10.80;74.70;;;;;;4995417;28;20088;-80
2022/05/14 00:16:31;;;;;;;4.72;2.17;;;10.80;74.90;;;;;;4994877;28;20041;-79
2022/05/14 00:18:57;;;;;;;2.95;1.73;;;10.80;75.10;;;;;;4995182;28;20551;-79
2022/05/14 00:21:23;;;;;;;6.28;2.53;;;10.70;75.10;;;;;;4995566;28;20022;-79
2022/05/14 00:23:50;;;;;;;4.43;2.22;;;10.70;75.30;;;;;;4984483;28;20022;-80
2022/05/14 00:26:17;;;;;;;6.07;2.28;;;10.70;75.30;;;;;;4996470;28;20018;-80
2022/05/14 00:28:42;;;;;;;10.35;3.10;;;10.70;75.70;;;;;;5013266;28;20065;-80
2022/05/14 00:31:09;;;;;;;6.38;1.98;;;10.60;75.70;;;;;;4994841;28;20511;-80
2022/05/14 00:33:35;;;;;;;5.30;2.08;;;10.70;75.80;;;;;;4993890;28;20113;-80
2022/05/14 00:36:01;;;;;;;3.10;1.88;;;10.60;75.90;;;;;;4994073;28;20361;-80
2022/05/14 00:38:27;;;;;;;6.00;2.38;;;10.50;76.10;;;;;;4994064;28;20113;-80
2022/05/14 00:40:58;;;;;;;4.35;1.90;;;10.50;76.20;;;;;;4977068;28;20388;-81
2022/05/14 00:43:25;;;;;;;3.67;2.08;;;10.50;76.30;;;;;;4993819;28;20113;-80
2022/05/14 00:45:58;;;;;;;4.93;2.05;;;10.50;76.40;;;;;;4993740;28;20025;-80
2022/05/14 00:48:29;;;;;;;4.38;1.77;;;10.50;76.50;;;;;;4993857;28;20038;-80
2022/05/14 00:50:57;;;;;;;7.72;2.88;;;10.50;76.70;;;;;;4993573;28;20564;-80
2022/05/14 00:53:32;;;;;;;5.28;2.08;;;10.40;76.80;;;;;;4993773;28;20073;-80
2022/05/14 00:56:03;;;;;;;3.10;1.88;;;10.40;77.00;;;;;;4994634;28;20030;-81
2022/05/14 00:58:46;;;;;;;6.47;2.13;;;10.40;77.00;;;;;;4994503;28;20041;-79
2022/05/14 01:01:12;;;;;;;5.38;2.13;;;10.40;77.10;;;;;;4994137;28;20022;-81
2022/05/14 01:03:38;;;;;;;5.38;1.83;;;10.40;77.20;;;;;;4993779;28;20110;-79
2022/05/14 01:06:06;;;;;;;3.20;2.17;;;10.40;77.30;;;;;;4993812;28;20101;-80
2022/05/14 01:08:34;;;;;;;4.65;1.73;;;10.30;77.40;;;;;;4993332;28;20229;-80
2022/05/14 01:11:00;;;;;;;;;;;10.30;78.00;;;;;;4995585;28;20078;-79
2022/05/14 01:13:26;;;;;;;7.07;2.40;;;10.40;77.00;;;;;;4999331;28;19944;-79
2022/05/14 01:15:54;;;;;;;4.50;1.85;;;10.30;77.50;;;;;;4999951;28;20503;-79
2022/05/14 01:18:23;;;;;;;3.47;1.90;;;10.30;77.70;;;;;;4978120;28;20507;-79
2022/05/14 01:21:04;;;;;;;3.80;1.63;;;10.30;77.80;;;;;;4994647;28;20033;-80
2022/05/14 01:26:41;;;;;;;6.18;1.90;;;10.30;77.90;;;;;;5002775;28;20081;-79
2022/05/14 01:29:10;;;;;;;5.60;2.40;;;10.30;78.10;;;;;;5001078;28;20061;-80
2022/05/14 01:31:37;;;;;;;4.68;1.80;;;10.30;78.30;;;;;;4995112;28;20026;-80
2022/05/14 01:34:07;;;;;;;5.22;1.95;;;10.30;78.30;;;;;;4994426;28;20149;-80
2022/05/14 01:36:34;;;;;;;6.38;2.10;;;10.30;78.20;;;;;;4993746;28;20109;-79
2022/05/14 01:39:00;;;;;;;;;;;10.30;78.30;;;;;;4993745;28;20022;-80
2022/05/14 01:41:26;;;;;;;7.15;2.15;;;10.30;78.00;;;;;;4993282;28;19913;-81
2022/05/14 01:43:52;;;;;;;2.85;1.77;;;10.30;78.30;;;;;;4975589;28;20069;-79
2022/05/14 01:46:18;;;;;;;5.25;2.40;;;10.30;78.50;;;;;;4992657;28;20022;-78
2022/05/14 01:48:46;;;;;;;7.07;2.08;;;10.30;78.50;;;;;;5009894;28;20023;-78
2022/05/14 01:51:13;;;;;;;4.68;1.98;;;10.30;78.40;;;;;;5008231;28;20030;-79
2022/05/14 01:53:38;;;;;;;6.00;2.20;;;10.40;78.50;;;;;;5001869;28;20085;-79
2022/05/14 01:56:04;;;;;;;4.28;2.30;;;10.40;78.60;;;;;;4993061;28;20026;-79
2022/05/14 01:58:36;;;;;;;8.02;2.35;;;10.50;78.60;;;;;;5008521;28;20037;-79
2022/05/14 02:01:26;;;;;;;4.60;1.98;;;10.50;78.30;;;;;;5013491;28;20026;-78
2022/05/14 02:03:58;;;;;;;4.15;1.85;;;10.50;78.30;;;;;;4997740;28;20045;-79
2022/05/14 02:06:25;;;;;;;6.07;2.35;;;10.60;78.10;;;;;;5002507;28;20476;-79
2022/05/14 02:08:51;;;;;;;2.92;1.67;;;10.60;78.10;;;;;;4980874;28;20069;-79
2022/05/14 02:11:17;;;;;;;3.00;1.75;;;10.70;78.00;;;;;;5009441;28;20507;-80
2022/05/14 02:13:45;;;;;;;5.57;2.13;;;10.70;77.90;;;;;;4994600;28;20026;-81
2022/05/14 02:16:10;;;;;;;5.18;1.83;;;10.70;78.00;;;;;;4993008;28;20031;-80
2022/05/14 02:18:37;;;;;;;2.88;2.13;;;10.70;77.80;;;;;;4992999;28;20531;-79
2022/05/14 02:21:04;;;;;;;3.45;2.25;;;10.80;77.70;;;;;;4992820;28;20033;-80
2022/05/14 02:23:31;;;;;;;4.43;1.65;;;10.90;77.50;;;;;;5006268;28;20025;-78
2022/05/14 02:25:56;;;;;;;6.25;1.90;;;10.90;77.30;;;;;;5015175;28;20479;-80
2022/05/14 02:28:22;;;;;;;4.80;1.98;;;11.00;77.10;;;;;;4997059;28;20030;-80
2022/05/14 02:30:48;;;;;;;8.73;2.10;;;11.10;76.80;;;;;;4996388;28;20101;-80
2022/05/14 02:33:14;;;;;;;3.13;1.83;;;11.10;77.40;;;;;;4996583;28;20035;-80
2022/05/14 02:35:41;;;;;;;3.97;1.98;;;11.10;76.40;;;;;;4996620;28;20022;-79
2022/05/14 02:38:09;;;;;;;5.25;2.10;;;11.20;76.50;;;;;;4996763;28;20069;-80
2022/05/14 02:40:34;;;;;;;3.60;2.13;;;11.20;76.30;;;;;;4996338;28;20027;-80
2022/05/14 02:43:01;;;;;;;4.72;1.83;;;11.30;76.20;;;;;;4996610;28;20398;-80
2022/05/14 02:45:27;;;;;;;3.77;1.70;;;11.30;75.90;;;;;;4996458;28;20088;-81
2022/05/14 02:47:53;;;;;;;5.10;1.92;;;11.40;75.80;;;;;;4996263;28;20027;-81
2022/05/14 02:50:19;;;;;;;4.60;2.33;;;11.50;75.70;;;;;;5025228;28;20028;-80
2022/05/14 02:52:45;;;;;;;3.33;1.75;;;11.60;75.50;;;;;;5035470;28;20502;-80
2022/05/14 02:55:12;;;;;;;3.58;1.90;;;11.60;75.20;;;;;;5035641;28;20022;-80
2022/05/14 02:57:38;;;;;;;4.15;2.05;;;11.80;75.20;;;;;;5035030;28;20033;-80
2022/05/14 03:00:06;;;;;;;4.28;1.73;;;11.80;74.70;;;;;;5035402;28;20368;-81
2022/05/14 03:02:31;;;;;;;4.03;1.55;;;11.80;74.20;;;;;;5035628;28;20025;-81
2022/05/14 03:04:57;;;;;;;2.40;1.50;;;11.80;74.10;;;;;;5035267;28;20382;-81
2022/05/14 03:07:23;;;;;;;4.53;2.00;;;11.90;74.10;;;;;;5035412;28;20446;-81
2022/05/14 03:09:48;;;;;;;3.83;1.85;;;11.80;74.10;;;;;;5035045;28;20035;-79
2022/05/14 03:12:15;;;;;;;3.33;1.80;;;11.90;73.90;;;;;;5035660;28;20032;-82
2022/05/14 03:14:41;;;;;;;5.97;2.00;;;11.90;74.10;;;;;;5035851;28;20068;-79
2022/05/14 03:17:08;;;;;;;5.93;1.80;;;12.00;74.10;;;;;;5036048;28;20376;-81
2022/05/14 03:19:34;;;;;;;4.43;1.50;;;12.00;73.80;;;;;;5035971;28;20034;-80
2022/05/14 03:22:01;;;;;;;6.35;1.85;;;12.10;73.40;;;;;;5034751;28;20032;-81
2022/05/14 03:24:27;;;;;;;3.05;1.92;;;12.10;73.60;;;;;;5020187;28;20030;-81
2022/05/14 03:26:53;;;;;;;5.47;1.40;;;12.10;73.60;;;;;;4997476;28;20030;-79
2022/05/14 03:29:18;;;;;;;4.55;1.67;;;12.20;73.20;;;;;;5013881;28;20715;-82
2022/05/14 03:31:45;;;;;;;5.22;1.67;;;12.40;73.20;;;;;;4998800;28;20034;-80
2022/05/14 03:34:11;;;;;;;5.13;2.05;;;12.50;72.60;;;;;;4995139;28;20496;-80
2022/05/14 03:36:41;;;;;;;5.05;1.83;;;12.50;72.00;;;;;;4995722;28;20062;-79
2022/05/14 03:39:08;;;;;;;2.65;1.58;;;12.50;71.80;;;;;;4999445;28;20061;-79
2022/05/14 03:41:34;;;;;;;5.00;2.45;;;12.60;72.00;;;;;;4990721;28;20022;-80
2022/05/14 03:44:00;;;;;;;4.18;1.80;;;12.70;71.90;;;;;;4998727;28;20080;-79
2022/05/14 03:46:26;;;;;;;7.88;2.47;;;12.70;71.60;;;;;;4997658;28;20026;-79
2022/05/14 03:48:52;;;;;;;3.42;1.70;;;12.80;71.40;;;;;;4998002;28;20038;-80
2022/05/14 03:51:18;;;;;;;7.50;1.50;;;12.90;70.70;;;;;;4997251;28;20022;-80
2022/05/14 03:53:43;;;;;;;2.80;1.75;;;12.80;70.60;;;;;;5015094;28;20025;-81
2022/05/14 03:56:10;;;;;;;7.15;1.98;;;12.80;71.00;;;;;;5015309;28;20108;-83
2022/05/14 03:58:36;;;;;;;3.08;1.60;;;12.80;70.80;;;;;;5014931;28;20030;-83
2022/05/14 04:01:04;;;;;;;3.50;1.65;;;12.80;70.70;;;;;;5014694;28;20026;-82
2022/05/14 04:03:30;;;;;;;;;;;12.90;70.50;;;;;;5015582;28;20025;-83
2022/05/14 04:05:56;;;;;;;3.42;1.33;;;12.90;70.50;;;;;;5015962;28;20256;-82
2022/05/14 04:08:21;;;;;;;4.00;1.45;;;12.90;70.40;;;;;;5015107;28;20152;-80
2022/05/14 04:10:48;;;;;;;2.10;1.58;;;13.00;70.50;;;;;;5029899;28;20018;-82
2022/05/14 04:13:14;;;;;;;2.97;1.57;;;13.10;70.20;;;;;;5015186;28;20398;-82
2022/05/14 04:15:41;;;;;;;4.53;1.75;;;13.10;70.10;;;;;;5015103;28;20022;-82
2022/05/14 04:18:09;;;;;;;6.67;1.93;;;13.20;69.90;;;;;;5015287;28;20069;-83
2022/05/14 04:20:35;;;;;;;;;;;13.20;69.70;;;;;;5016283;28;20025;-83
2022/05/14 04:23:01;;;;;;;4.50;1.05;;;13.30;69.70;;;;;;5014323;28;19912;-83
2022/05/14 04:25:27;;;;;;;3.40;1.33;;;13.40;69.20;;;;;;4996429;28;20040;-81
2022/05/14 04:27:53;;;;;;;4.60;1.40;;;13.50;68.60;;;;;;4994432;28;20026;-81
2022/05/14 04:30:19;;;;;;;8.60;1.52;;;13.60;68.00;;;;;;4976862;28;20567;-82
2022/05/14 04:32:46;;;;;;;4.32;1.13;;;13.60;67.90;;;;;;5012391;28;20108;-83
2022/05/14 04:35:13;;;;;;;3.38;1.42;;;13.60;67.20;;;;;;5014182;28;20490;-82
2022/05/14 04:37:39;;;;;;;;;;;13.60;67.70;;;;;;5014331;28;20554;-80
2022/05/14 04:40:07;;;;;;;3.53;1.80;;;13.60;67.50;;;;;;5014096;28;19906;-82
2022/05/14 04:42:33;;;;;;;3.28;1.55;;;13.70;67.60;;;;;;5014253;28;20030;-80
2022/05/14 04:44:58;;;;;;;4.80;1.58;;;13.80;67.60;;;;;;4986575;28;20117;-80
2022/05/14 04:47:24;;;;;;;5.45;1.02;;;13.80;67.80;;;;;;4995617;28;20034;-80
2022/05/14 04:49:50;;;;;;;3.08;0.95;;;13.90;66.90;;;;;;5006889;28;20033;-80
2022/05/14 04:52:17;;;;;;;2.72;1.48;;;13.90;66.90;;;;;;5022701;28;20105;-83
2022/05/14 04:54:43;;;;;;;2.00;1.30;;;13.90;67.10;;;;;;5023278;28;20029;-81
2022/05/14 04:57:09;;;;;;;6.28;1.73;;;14.20;67.20;;;;;;5016062;28;20034;-80
2022/05/14 04:59:36;;;;;;;4.00;1.67;;;14.60;65.40;;;;;;5015093;28;20028;-80
2022/05/14 05:04:47;;;;;;;4.50;1.30;;;15.10;64.90;;;;;;5014447;28;20073;-81
2022/05/14 05:07:13;;;;;;;5.13;1.40;;;16.10;62.90;;;;;;5014169;28;20029;-80
2022/05/14 05:09:38;;;;;;;2.65;1.20;;;17.00;60.00;;;;;;5013574;28;20171;-84
2022/05/14 05:12:05;;;;;;;3.67;1.45;;;17.60;57.40;;;;;;5013730;28;20494;-82
2022/05/14 05:14:31;;;;;;;4.00;1.73;;;18.10;56.60;;;;;;5013908;28;20080;-82
2022/05/14 05:17:00;;;;;;;3.10;1.50;;;19.00;54.20;;;;;;5013797;28;20034;-84
2022/05/14 05:19:26;;;;;;;3.28;1.50;;;19.50;53.20;;;;;;5007562;28;20035;-82
2022/05/14 05:21:51;;;;;;;7.53;1.60;;;20.20;51.40;;;;;;4994646;28;20435;-83
2022/05/14 05:24:18;;;;;;;2.58;1.17;;;20.80;50.20;;;;;;4991412;28;20026;-81
2022/05/14 05:26:43;;;;;;;2.83;1.33;;;21.30;48.60;;;;;;5006374;28;20082;-81
2022/05/14 05:29:09;;;;;;;1.98;1.27;;;21.30;47.80;;;;;;5002162;28;20066;-82
2022/05/14 05:31:35;;;;;;;2.28;1.55;;;21.10;47.00;;;;;;4995208;28;20140;-79
2022/05/14 05:34:02;;;;;;;2.08;1.02;;;20.40;48.90;;;;;;4993458;28;20026;-82
2022/05/14 05:36:30;;;;;;;2.38;1.20;;;20.60;48.30;;;;;;4993594;28;20072;-83
2022/05/14 05:38:55;;;;;;;;;;;20.90;47.90;;;;;;4994098;28;20057;-82
2022/05/14 05:41:21;;;;;;;6.07;1.58;;;21.30;48.30;;;;;;4993500;28;20367;-80
2022/05/14 05:43:47;;;;;;;8.98;1.83;;;22.00;46.20;;;;;;4993412;28;20030;-82
2022/05/14 05:46:14;;;;;;;4.13;1.63;;;22.10;45.40;;;;;;4993421;28;20062;-82
2022/05/14 05:48:41;;;;;;;2.15;1.20;;;22.80;44.20;;;;;;4994339;28;20033;-82
2022/05/14 05:51:07;;;;;;;;;;;23.20;42.70;;;;;;4996334;28;20085;-82
2022/05/14 05:59:04;;;;;;;3.65;1.00;;;24.80;40.50;;;;;;4993516;28;20049;-79
2022/05/14 06:01:31;;;;;;;2.22;1.02;;;26.00;38.70;;;;;;4994424;28;20026;-82
2022/05/14 06:03:56;;;;;;;4.43;1.35;;;26.80;36.70;;;;;;5012928;28;20407;-83
2022/05/14 06:06:22;;;;;;;2.20;0.65;;;26.40;36.40;;;;;;5015123;28;20026;-82
2022/05/14 06:08:48;;;;;;;3.10;1.05;;;26.60;36.00;;;;;;5004186;28;20018;-81
2022/05/14 06:11:14;;;;;;;2.20;0.93;;;27.00;35.40;;;;;;5022488;28;20036;-81
2022/05/14 06:13:40;;;;;;;2.20;0.82;;;27.50;34.60;;;;;;5014125;28;20018;-81
2022/05/14 06:16:06;;;;;;;5.43;1.20;;;27.90;34.20;;;;;;4994712;28;20403;-81
2022/05/14 06:18:32;;;;;;;2.28;1.05;;;28.80;33.70;;;;;;5012309;28;20038;-82
2022/05/14 06:20:58;;;;;;;5.32;1.15;;;29.20;33.20;;;;;;4993673;28;20022;-81
2022/05/14 06:23:24;;;;;;;3.15;0.90;;;29.30;32.50;;;;;;4996625;28;20037;-83
2022/05/14 06:25:49;;;;;;;2.97;0.82;;;30.20;32.70;;;;;;5012439;28;20101;-81
2022/05/14 06:28:15;;;;;;;3.70;0.97;;;31.30;32.00;;;;;;5012247;28;20018;-80
2022/05/14 06:30:43;;;;;;;2.90;1.20;;;32.10;30.70;;;;;;5011988;28;20499;-81
2022/05/14 06:33:10;;;;;;;8.38;1.17;;;32.10;30.00;;;;;;5005228;28;20429;-80
2022/05/14 06:35:37;;;;;;;8.50;1.52;;;32.20;30.00;;;;;;4992331;28;20038;-84
2022/05/14 06:38:05;;;;;;;5.65;1.33;;;32.00;29.70;;;;;;5005542;28;20022;-80
2022/05/14 06:40:31;;;;;;;3.72;1.00;;;31.30;30.00;;;;;;4991690;28;20026;-83
2022/05/14 06:42:57;;;;;;;2.58;1.27;;;30.60;30.40;;;;;;4991773;28;20022;-81
2022/05/14 06:45:24;;;;;;;1.57;0.93;;;30.90;30.70;;;;;;4991726;28;20029;-83
2022/05/14 06:47:49;;;;;;;;;;;31.30;29.90;;;;;;4992167;28;20072;-84
2022/05/14 06:50:15;;;;;;;1.70;0.80;;;31.70;30.70;;;;;;4993878;28;20395;-80
2022/05/14 06:53:19;;;;;;;4.30;0.60;;;30.50;29.50;;;;;;4992433;28;20014;-82
2022/05/14 06:55:50;;;;;;;2.45;0.60;;;30.80;29.80;;;;;;4992437;28;20102;-82
2022/05/14 06:58:19;;;;;;;4.07;0.90;;;31.50;29.00;;;;;;4992170;28;20033;-80
2022/05/14 07:00:47;;;;;;;3.50;1.10;;;31.30;29.30;;;;;;4991899;28;20097;-82
2022/05/14 07:08:41;;;;;;;5.53;1.40;;;32.20;29.00;;;;;;4992471;28;20455;-84
2022/05/14 07:11:09;;;;;;;4.60;1.13;;;32.60;28.50;;;;;;4995404;28;20026;-83
2022/05/14 07:13:35;;;;;;;1.40;0.88;;;32.20;28.60;;;;;;4995448;28;20037;-85
2022/05/14 07:16:01;;;;;;;4.70;1.00;;;32.30;28.40;;;;;;4995878;28;20023;-84
2022/05/14 07:18:27;;;;;;;3.70;0.90;;;32.10;28.30;;;;;;4995825;28;20034;-87
2022/05/14 07:20:52;;;;;;;3.50;1.10;;;31.00;28.70;;;;;;4996165;28;20039;-84
2022/05/14 07:23:18;;;;;;;2.13;0.97;;;30.80;29.20;;;;;;4996706;28;20030;-85
2022/05/14 07:25:44;;;;;;;6.97;1.73;;;30.80;29.10;;;;;;4998064;28;20491;-83
2022/05/14 07:28:10;;;;;;;5.10;1.67;;;30.50;29.60;;;;;;4996275;28;20121;-84
2022/05/14 07:30:36;;;;;;;2.10;1.00;;;31.70;29.00;;;;;;4995958;28;20404;-86
2022/05/14 07:33:02;;;;;;;4.43;1.33;;;32.50;28.30;;;;;;4997435;28;20503;-87
2022/05/14 07:35:30;;;;;;;6.30;1.25;;;33.20;27.80;;;;;;4995713;28;20030;-86
2022/05/14 07:37:58;;;;;;;3.78;0.88;;;33.20;27.40;;;;;;4982261;28;20064;-84
2022/05/14 07:40:28;;;;;;;4.30;1.15;;;32.10;27.60;;;;;;4995599;28;20044;-85
2022/05/14 07:43:15;;;;;;;3.17;1.05;;;30.40;28.50;;;;;;4995988;28;20023;-88
2022/05/14 07:45:44;;;;;;;6.60;1.65;;;28.60;29.50;;;;;;4979438;28;20611;-84
2022/05/14 07:48:17;;;;;;;5.25;1.25;;;27.50;30.50;;;;;;4995976;28;20046;-87
2022/05/14 07:50:44;;;;;;;5.38;1.20;;;27.10;31.20;;;;;;5012391;28;20030;-86
2022/05/14 07:53:10;;;;;;;5.10;1.17;;;26.20;31.30;;;;;;5015545;28;20026;-90
2022/05/14 07:55:36;;;;;;;2.75;1.67;;;24.80;32.50;;;;;;5015711;28;20170;-85
2022/05/14 07:58:05;;;;;;;4.05;1.40;;;24.60;34.00;;;;;;5015155;28;20026;-86
2022/05/14 08:00:32;;;;;;;2.80;1.23;;;26.30;32.90;;;;;;5017403;28;20037;-91
2022/05/14 08:02:58;;;;;;;4.30;1.38;;;28.40;30.00;;;;;;5017719;28;20022;-89
2022/05/14 08:05:24;;;;;;;5.03;1.00;;;29.10;29.10;;;;;;5022918;28;20028;-85
2022/05/14 08:07:50;;;;;;;4.15;1.08;;;28.00;29.30;;;;;;5036475;28;20065;-86
2022/05/14 08:10:17;;;;;;;4.30;0.93;;;25.50;30.20;;;;;;5039058;28;20068;-87
2022/05/14 08:12:46;;;;;;;2.83;1.40;;;23.50;33.50;;;;;;5025957;28;20074;-81
2022/05/14 08:15:14;;;;;;;4.30;1.27;;;22.20;34.90;;;;;;5012855;28;20138;-89
2022/05/14 08:17:40;;;;;;;3.50;1.48;;;21.10;36.90;;;;;;4999323;28;20081;-89
2022/05/14 08:20:06;;;;;;;3.47;1.20;;;21.70;36.80;;;;;;4997626;28;20022;-91
2022/05/14 08:25:17;;;;;;;6.97;1.33;;;21.60;35.80;;;;;;4997950;28;20068;-88
2022/05/14 08:27:45;;;;;;;6.97;1.70;;;20.40;36.90;;;;;;4990160;28;20070;-88
2022/05/14 08:30:17;;;;;;;3.70;1.27;;;19.30;38.90;;;;;;4995968;28;20049;-86
2022/05/14 08:32:43;;;;;;;2.70;0.90;;;18.40;40.30;;;;;;4998912;28;20523;-87
2022/05/14 08:35:10;;;;;;;2.75;1.35;;;18.10;41.20;;;;;;4996871;28;20112;-87
2022/05/14 08:37:39;;;;;;;3.05;1.45;;;17.80;41.90;;;;;;4982860;28;20071;-89
2022/05/14 08:40:26;;;;;;;4.80;1.23;;;17.60;42.50;;;;;;5003951;28;20058;-89
2022/05/14 08:42:54;;;;;;;4.57;0.80;;;17.60;42.90;;;;;;4999195;28;20041;-87
2022/05/14 08:45:23;;;;;;;5.95;1.55;;;17.50;43.40;;;;;;4995548;28;20038;-85
2022/05/14 08:48:02;;;;;;;3.55;1.30;;;18.30;44.00;;;;;;4995923;28;20034;-87
2022/05/14 08:50:35;;;;;;;5.13;1.30;;;19.90;40.90;;;;;;4982684;28;20383;-86
2022/05/14 08:53:04;;;;;;;3.92;1.38;;;20.10;40.00;;;;;;5004498;28;20213;-85
2022/05/14 08:55:40;;;;;;;5.45;1.20;;;19.70;40.30;;;;;;5015533;28;20028;-84
2022/05/14 08:58:29;;;;;;;14.32;2.85;;;19.20;40.30;;;;;;5000235;28;20491;-87
2022/05/14 09:01:03;;;;;;;3.42;1.40;;;18.40;40.80;;;;;;5002164;28;20029;-85
2022/05/14 09:03:29;;;;;;;6.40;1.50;;;18.10;41.60;;;;;;5029124;28;20053;-87
2022/05/14 09:05:57;;;;;;;5.85;1.75;;;17.80;42.10;;;;;;5023397;28;20022;-89
2022/05/14 09:08:23;;;;;;;8.82;3.03;;;17.90;42.60;;;;;;5023991;28;20038;-88
2022/05/14 09:11:16;;;;;;;5.70;4.20;;;18.20;43.00;;;;;;5022506;28;20030;-89
2022/05/14 09:13:45;;;;;;;7.97;2.65;;;19.20;42.20;;;;;;5004557;28;20034;-87
2022/05/14 09:16:34;;;;;;;4.68;1.98;;;19.90;40.10;;;;;;5029347;28;20030;-85
2022/05/14 09:19:14;;;;;;;14.52;7.85;;;19.50;40.00;;;;;;5010446;28;20094;-81
2022/05/14 09:21:58;;;;;;;6.72;2.20;;;19.10;41.00;;;;;;5003934;28;20029;-81
2022/05/14 09:24:27;;;;;;;5.78;4.35;;;19.00;41.20;;;;;;5013623;28;20809;-82
2022/05/14 09:27:07;;;;;;;6.28;2.70;;;19.00;41.60;;;;;;5010045;28;20025;-81
2022/05/14 09:29:41;;;;;;;5.53;1.60;;;19.00;41.70;;;;;;5005999;28;20085;-83
2022/05/14 09:32:27;;;;;;;3.70;1.70;;;18.90;41.60;;;;;;5012479;28;20152;-83
2022/05/14 09:35:04;;;;;;;7.03;1.80;;;18.80;42.10;;;;;;5013226;28;20029;-83
2022/05/14 09:37:30;;;;;;;3.92;1.45;;;19.00;43.00;;;;;;5013359;28;20026;-83
2022/05/14 09:40:00;;;;;;;2.97;1.13;;;19.90;41.10;;;;;;5012897;28;21018;-83
2022/05/14 09:42:48;;;;;;;6.80;1.75;;;20.80;39.50;;;;;;5012974;28;20030;-83
2022/05/14 09:45:28;;;;;;;4.47;1.33;;;23.20;37.80;;;;;;5008618;28;20029;-83
2022/05/14 09:47:53;;;;;;;1.48;0.90;;;25.80;33.70;;;;;;4992996;28;20416;-85
2022/05/14 09:50:32;;;;;;;1.80;1.35;;;27.10;31.50;;;;;;5004266;28;20033;-83
2022/05/14 09:53:02;;;;;;;6.43;1.60;;;28.30;30.60;;;;;;5002366;28;20039;-82
2022/05/14 09:55:37;;;;;;;3.03;1.40;;;27.80;29.80;;;;;;5012040;28;20422;-83
2022/05/14 09:58:29;;;;;;;3.80;1.40;;;27.20;30.80;;;;;;5009757;28;20029;-82
2022/05/14 10:01:19;;;;;;;5.78;1.80;;;28.30;30.60;;;;;;5006766;28;20411;-82
2022/05/14 10:04:05;;;;;;;3.38;1.42;;;27.80;30.60;;;;;;5012348;28;20034;-83
2022/05/14 10:07:14;;;;;;;9.23;1.63;;;26.70;31.20;;;;;;5012919;28;20028;-83
2022/05/14 10:10:01;;;;;;;5.40;1.67;;;24.80;32.50;;;;;;4971695;28;20115;-82
2022/05/14 10:12:45;;;;;;;;;;;23.20;36.40;;;;;;4975116;28;20038;-83
2022/05/14 10:15:40;;;;;;;5.45;1.45;;;20.60;40.70;;;;;;4993274;28;19996;-82
2022/05/14 10:18:27;;;;;;;5.20;1.58;;;17.70;49.80;;;;;;4995085;28;20027;-80
2022/05/14 10:21:11;;;;;;;5.53;2.22;;;16.40;56.10;;;;;;4987871;28;20027;-79
2022/05/14 10:27:11;;;;;;;5.78;1.40;;;15.40;58.50;;;;;;4997155;28;20379;-81
2022/05/14 10:29:54;;;;;;;5.72;1.38;;;16.10;58.00;;;;;;4972789;28;20042;-81
2022/05/14 10:32:24;;;;;;;4.53;2.15;;;16.70;56.80;;;;;;5010873;28;20022;-84
2022/05/14 10:35:10;;;;;;;7.10;2.90;;;17.30;54.60;;;;;;5012596;28;20026;-83
2022/05/14 10:37:56;;;;;;;4.47;1.33;;;17.40;52.40;;;;;;4997736;28;20023;-91
2022/05/14 10:40:34;;;;;;;4.30;1.25;;;17.30;52.40;;;;;;4995586;28;20033;-85
2022/05/14 10:43:16;;;;;;;4.57;1.95;;;17.20;52.60;;;;;;4995614;28;20130;-88
2022/05/14 10:45:46;;;;;;;4.43;2.10;;;17.10;55.10;;;;;;5001122;28;20499;-85
2022/05/14 10:48:44;;;;;;;6.95;1.70;;;17.20;55.70;;;;;;4998520;28;20042;-87
2022/05/14 10:51:18;;;;;;;3.15;1.40;;;17.30;54.90;;;;;;4903829;29;20039;-86
2022/05/14 10:53:44;;;;;;;7.72;4.03;;;17.50;52.20;;;;;;4920415;29;20035;-85
2022/05/14 10:56:22;;;;;;;7.43;2.05;;;17.50;53.30;;;;;;4918120;29;20043;-85
2022/05/14 10:58:58;;;;;;;7.28;1.98;;;17.60;52.10;;;;;;4901314;29;20113;-86
2022/05/14 11:01:53;;;;;;;3.47;1.13;;;17.60;49.20;;;;;;4930122;29;20593;-87
2022/05/14 11:04:29;;;;;;;3.08;1.10;;;17.70;48.20;;;;;;4936643;29;20027;-86
2022/05/14 11:06:58;;;;;;;3.22;1.55;;;17.50;46.30;;;;;;4936697;29;20031;-85
2022/05/14 11:09:38;;;;;;;2.40;1.13;;;17.40;46.50;;;;;;4920809;29;20126;-87
2022/05/14 11:12:11;;;;;;;2.55;1.30;;;17.40;45.90;;;;;;4920542;29;20020;-84
2022/05/14 11:14:46;;;;;;;5.05;1.30;;;17.40;46.10;;;;;;4936827;28;20044;-86
2022/05/14 11:17:23;;;;;;;3.25;1.30;;;17.50;46.60;;;;;;4936424;29;20031;-84
2022/05/14 11:19:51;;;;;;;5.00;1.75;;;17.70;46.10;;;;;;4935812;29;20525;-87
2022/05/14 11:22:32;;;;;;;3.00;1.50;;;17.80;46.10;;;;;;4919633;29;20100;-82
2022/05/14 11:25:11;;;;;;;4.43;1.55;;;18.00;45.70;;;;;;4936250;29;20120;-85
2022/05/14 11:27:39;;;;;;;6.90;1.70;;;18.30;46.30;;;;;;4959687;28;20074;-85
2022/05/14 11:30:09;;;;;;;3.13;1.48;;;18.60;44.50;;;;;;5001490;28;20041;-87
2022/05/14 11:32:48;;;;;;;5.88;2.13;;;18.50;43.40;;;;;;5006987;28;20026;-87
2022/05/14 11:35:15;;;;;;;5.60;1.42;;;18.40;43.50;;;;;;5011005;28;20099;-84
2022/05/14 11:37:45;;;;;;;3.78;1.08;;;18.30;43.80;;;;;;4998100;28;20395;-84
2022/05/14 11:40:14;;;;;;;2.95;1.60;;;18.20;43.70;;;;;;4997954;28;20060;-86
2022/05/14 11:42:40;;;;;;;6.35;1.98;;;18.10;45.00;;;;;;4998751;28;20037;-85
2022/05/14 11:45:12;;;;;;;4.55;1.38;;;18.10;44.40;;;;;;5019265;28;20030;-87
2022/05/14 11:47:47;;;;;;;7.07;1.60;;;18.10;43.30;;;;;;5023869;28;20030;-89
2022/05/14 11:50:17;;;;;;;4.40;1.67;;;18.00;43.10;;;;;;5002864;28;20431;-84
2022/05/14 11:53:25;;;;;;;6.65;2.38;;;18.00;43.00;;;;;;5015029;28;20014;-91
2022/05/14 11:56:00;;;;;;;7.43;1.60;;;17.90;43.70;;;;;;4990097;28;20046;-93
2022/05/14 11:58:43;;;;;;;4.30;1.38;;;18.00;43.60;;;;;;4971496;28;20409;-91
2022/05/14 12:01:18;;;;;;;4.90;2.30;;;18.00;43.40;;;;;;4968622;28;20014;-93
2022/05/14 12:03:46;;;;;;;4.22;2.45;;;17.90;45.20;;;;;;4984491;28;20027;-91
2022/05/14 12:06:26;;;;;;;2.40;1.50;;;17.70;45.70;;;;;;4977224;28;20038;-93
2022/05/14 12:09:10;;;;;;;2.97;1.63;;;17.70;45.00;;;;;;5013425;28;20042;-90
2022/05/14 12:11:59;;;;;;;3.70;1.20;;;17.70;44.90;;;;;;4999085;28;20058;-89
2022/05/14 12:14:34;;;;;;;6.05;1.63;;;17.60;44.80;;;;;;4980322;28;20129;-91
2022/05/14 12:17:04;;;;;;;6.85;1.92;;;17.60;45.10;;;;;;4981879;28;20034;-89
2022/05/14 12:19:37;;;;;;;7.28;1.83;;;17.60;46.00;;;;;;4999157;28;20041;-86
2022/05/14 12:22:21;;;;;;;4.13;1.60;;;17.70;45.20;;;;;;4988380;28;20480;-88
2022/05/14 12:25:01;;;;;;;2.90;1.55;;;17.70;44.70;;;;;;4999915;28;20122;-89
2022/05/14 12:27:30;;;;;;;2.85;1.98;;;17.70;45.00;;;;;;4999284;28;20053;-89
2022/05/14 12:30:05;;;;;;;14.52;2.28;;;17.70;44.90;;;;;;5011153;28;20042;-90
2022/05/14 12:35:24;;;;;;;4.97;2.03;;;17.80;45.10;;;;;;5019489;28;20028;-89
2022/05/14 12:37:55;;;;;;;6.35;2.20;;;17.80;45.00;;;;;;5019172;28;20045;-89
2022/05/14 12:40:35;;;;;;;5.85;1.85;;;17.80;45.00;;;;;;5037639;28;20067;-91
2022/05/14 12:43:04;;;;;;;5.47;1.83;;;17.80;44.90;;;;;;5021903;28;20034;-90
2022/05/14 12:45:39;;;;;;;4.30;1.60;;;17.80;45.60;;;;;;5011211;28;20037;-87
2022/05/14 12:48:08;;;;;;;6.90;4.35;;;17.80;44.50;;;;;;5002531;28;20383;-92
2022/05/14 12:50:34;;;;;;;11.07;3.85;;;17.80;44.40;;;;;;5009984;28;20089;-86
2022/05/14 12:53:07;;;;;;;4.35;2.17;;;17.80;44.60;;;;;;4998827;28;20041;-89
2022/05/14 12:55:47;;;;;;;8.25;4.22;;;17.70;44.10;;;;;;4981226;28;20022;-91
2022/05/14 12:58:13;;;;;;;5.10;3.05;;;17.60;44.70;;;;;;4987152;28;20056;-91
2022/05/14 13:00:43;;;;;;;4.70;2.15;;;17.70;44.40;;;;;;5016069;28;20018;-84
2022/05/14 13:03:31;;;;;;;5.53;2.80;;;17.70;44.10;;;;;;4981665;28;20026;-84
2022/05/14 13:06:04;;;;;;;5.50;1.50;;;17.80;43.90;;;;;;4976699;28;20443;-85
2022/05/14 13:08:31;;;;;;;8.32;2.20;;;17.60;44.00;;;;;;5001900;28;20472;-83
2022/05/14 13:11:12;;;;;;;4.78;2.08;;;17.50;44.20;;;;;;5010918;28;20057;-84
2022/05/14 13:13:45;;;;;;;4.95;2.30;;;17.50;44.80;;;;;;4981094;28;20056;-84
2022/05/14 13:16:19;;;;;;;5.38;1.73;;;17.50;44.90;;;;;;4999900;28;20034;-93
2022/05/14 13:18:52;;;;;;;6.50;1.55;;;17.60;44.30;;;;;;5021816;28;20029;-92
2022/05/14 13:21:20;;;;;;;7.63;1.73;;;17.70;43.70;;;;;;5020363;28;20108;-88
2022/05/14 13:24:05;;;;;;;5.75;1.92;;;17.60;43.70;;;;;;5013457;28;20026;-82
2022/05/14 13:26:42;;;;;;;6.80;2.08;;;17.50;44.30;;;;;;4995064;28;20033;-82
2022/05/14 13:29:11;;;;;;;5.57;1.88;;;17.40;44.50;;;;;;4994960;28;20053;-80
2022/05/14 13:31:37;;;;;;;4.65;2.38;;;17.30;44.10;;;;;;5011265;28;20026;-82
2022/05/14 13:37:10;;;;;;;5.15;2.28;;;17.50;43.00;;;;;;4952727;28;20419;-83